AHS9923 LEXJ-LEST
Flight info
| Callsign | AHS9923 |
|---|---|
| Flight time | 1h 35m |
| Altitude | 5500 |
| Route | LEXJ W2 // FOLLOW COASTLINE WESTBOUND // RIBADESELLA // OVIEDO // LUGO // LEST E2 |
| Aircraft | EC45/L-SDFG/S |
Departure
| Time | 2026-05-06 06:34 |
|---|---|
| Airport | Seve Ballesteros-Santander Airport (LEXJ) |
Arrival
| Time | 2026-05-06 08:09 |
|---|---|
| Airport | Santiago-Rosalía de Castro Airport (LEST) |
| Time | Latitude | Longitude | Altitude | Speed | Heading |
|---|---|---|---|---|---|
| 2026-05-06 06:28 | 43.42429 | -3.82586 | 15 ft | 0 kts | 290° |
| 2026-05-06 06:29 | 43.42431 | -3.82585 | 15 ft | 0 kts | 345° |
| 2026-05-06 06:29 | 43.42431 | -3.82583 | 15 ft | 0 kts | 276° |
| 2026-05-06 06:29 | 43.42431 | -3.82582 | 15 ft | 0 kts | 264° |
| 2026-05-06 06:30 | 43.42432 | -3.82583 | 19 ft | 0 kts | 302° |
| 2026-05-06 06:31 | 43.42433 | -3.82581 | 18 ft | 0 kts | 256° |
| 2026-05-06 06:31 | 43.42433 | -3.82607 | 21 ft | 10 kts | 343° |
| 2026-05-06 06:31 | 43.42463 | -3.82566 | 27 ft | 10 kts | 91° |
| 2026-05-06 06:31 | 43.42473 | -3.82490 | 28 ft | 8 kts | 108° |
| 2026-05-06 06:32 | 43.42472 | -3.82440 | 31 ft | 5 kts | 121° |
| 2026-05-06 06:32 | 43.42473 | -3.82380 | 29 ft | 9 kts | 76° |
| 2026-05-06 06:32 | 43.42503 | -3.82326 | 34 ft | 10 kts | 22° |
| 2026-05-06 06:32 | 43.42582 | -3.82292 | 36 ft | 19 kts | 18° |
| 2026-05-06 06:33 | 43.42710 | -3.82191 | 40 ft | 22 kts | 335° |
| 2026-05-06 06:33 | 43.42815 | -3.82340 | 92 ft | 42 kts | 289° |
| 2026-05-06 06:33 | 43.42972 | -3.82935 | 119 ft | 85 kts | 284° |
| 2026-05-06 06:33 | 43.43129 | -3.83665 | 414 ft | 72 kts | 252° |
| 2026-05-06 06:34 | 43.42765 | -3.84139 | 604 ft | 87 kts | 217° |
| 2026-05-06 06:34 | 43.42212 | -3.84625 | 694 ft | 93 kts | 216° |
| 2026-05-06 06:34 | 43.41647 | -3.85153 | 795 ft | 102 kts | 218° |
| 2026-05-06 06:34 | 43.41087 | -3.85718 | 1046 ft | 98 kts | 221° |
| 2026-05-06 06:35 | 43.40561 | -3.86293 | 1342 ft | 96 kts | 221° |
| 2026-05-06 06:35 | 43.40058 | -3.86843 | 1596 ft | 94 kts | 229° |
| 2026-05-06 06:35 | 43.39566 | -3.87601 | 1697 ft | 114 kts | 234° |
| 2026-05-06 06:35 | 43.39232 | -3.88628 | 1777 ft | 119 kts | 261° |
| 2026-05-06 06:36 | 43.39394 | -3.89719 | 1975 ft | 118 kts | 288° |
| 2026-05-06 06:36 | 43.39734 | -3.90740 | 2146 ft | 118 kts | 292° |
| 2026-05-06 06:36 | 43.40076 | -3.91758 | 2285 ft | 118 kts | 291° |
| 2026-05-06 06:36 | 43.40408 | -3.92794 | 2480 ft | 116 kts | 290° |
| 2026-05-06 06:37 | 43.40720 | -3.93812 | 2678 ft | 116 kts | 289° |
| 2026-05-06 06:37 | 43.41017 | -3.94797 | 2845 ft | 115 kts | 289° |
| 2026-05-06 06:37 | 43.41325 | -3.95820 | 3016 ft | 115 kts | 289° |
| 2026-05-06 06:37 | 43.41632 | -3.96839 | 3207 ft | 115 kts | 289° |
| 2026-05-06 06:38 | 43.41940 | -3.97863 | 3384 ft | 115 kts | 290° |
| 2026-05-06 06:38 | 43.42244 | -3.98875 | 3567 ft | 115 kts | 290° |
| 2026-05-06 06:38 | 43.42549 | -3.99885 | 3745 ft | 115 kts | 290° |
| 2026-05-06 06:38 | 43.42859 | -4.00915 | 3907 ft | 116 kts | 290° |
| 2026-05-06 06:39 | 43.43168 | -4.01939 | 4072 ft | 117 kts | 290° |
| 2026-05-06 06:39 | 43.43461 | -4.02981 | 4220 ft | 118 kts | 285° |
| 2026-05-06 06:39 | 43.43521 | -4.04107 | 4383 ft | 118 kts | 270° |
| 2026-05-06 06:39 | 43.43455 | -4.05239 | 4536 ft | 119 kts | 266° |
| 2026-05-06 06:40 | 43.43351 | -4.06373 | 4698 ft | 120 kts | 265° |
| 2026-05-06 06:40 | 43.43239 | -4.07508 | 4853 ft | 121 kts | 265° |
| 2026-05-06 06:40 | 43.43118 | -4.08660 | 4998 ft | 121 kts | 264° |
| 2026-05-06 06:40 | 43.42997 | -4.09809 | 5173 ft | 122 kts | 264° |
| 2026-05-06 06:41 | 43.42876 | -4.10965 | 5334 ft | 123 kts | 265° |
| 2026-05-06 06:41 | 43.42753 | -4.12137 | 5477 ft | 123 kts | 265° |
| 2026-05-06 06:41 | 43.42629 | -4.13302 | 5549 ft | 123 kts | 264° |
| 2026-05-06 06:41 | 43.42502 | -4.14460 | 5539 ft | 123 kts | 264° |
| 2026-05-06 06:42 | 43.42373 | -4.15624 | 5541 ft | 123 kts | 263° |
| 2026-05-06 06:42 | 43.42243 | -4.16799 | 5537 ft | 123 kts | 263° |
| 2026-05-06 06:42 | 43.42115 | -4.17960 | 5546 ft | 123 kts | 264° |
| 2026-05-06 06:42 | 43.41993 | -4.19118 | 5545 ft | 122 kts | 264° |
| 2026-05-06 06:43 | 43.41870 | -4.20286 | 5545 ft | 123 kts | 264° |
| 2026-05-06 06:43 | 43.41748 | -4.21441 | 5547 ft | 123 kts | 264° |
| 2026-05-06 06:43 | 43.41625 | -4.22601 | 5545 ft | 123 kts | 264° |
| 2026-05-06 06:43 | 43.41502 | -4.23759 | 5545 ft | 123 kts | 264° |
| 2026-05-06 06:44 | 43.41378 | -4.24933 | 5536 ft | 123 kts | 264° |
| 2026-05-06 06:44 | 43.41255 | -4.26090 | 5547 ft | 122 kts | 263° |
| 2026-05-06 06:44 | 43.41132 | -4.27247 | 5543 ft | 123 kts | 264° |
| 2026-05-06 06:44 | 43.41008 | -4.28410 | 5543 ft | 123 kts | 263° |
| 2026-05-06 06:45 | 43.40882 | -4.29590 | 5542 ft | 123 kts | 264° |
| 2026-05-06 06:45 | 43.40758 | -4.30749 | 5540 ft | 123 kts | 264° |
| 2026-05-06 06:45 | 43.40635 | -4.31907 | 5543 ft | 123 kts | 264° |
| 2026-05-06 06:45 | 43.40511 | -4.33070 | 5541 ft | 124 kts | 263° |
| 2026-05-06 06:46 | 43.40385 | -4.34248 | 5544 ft | 123 kts | 263° |
| 2026-05-06 06:46 | 43.40261 | -4.35408 | 5541 ft | 123 kts | 263° |
| 2026-05-06 06:46 | 43.40136 | -4.36574 | 5542 ft | 124 kts | 264° |
| 2026-05-06 06:46 | 43.40010 | -4.37744 | 5540 ft | 124 kts | 263° |
| 2026-05-06 06:47 | 43.39885 | -4.38912 | 5543 ft | 124 kts | 264° |
| 2026-05-06 06:47 | 43.39759 | -4.40082 | 5546 ft | 124 kts | 263° |
| 2026-05-06 06:47 | 43.39633 | -4.41254 | 5543 ft | 123 kts | 263° |
| 2026-05-06 06:47 | 43.39573 | -4.42428 | 5545 ft | 123 kts | 271° |
| 2026-05-06 06:48 | 43.39637 | -4.43586 | 5540 ft | 122 kts | 276° |
| 2026-05-06 06:48 | 43.39747 | -4.44736 | 5547 ft | 122 kts | 278° |
| 2026-05-06 06:48 | 43.39874 | -4.45898 | 5547 ft | 121 kts | 279° |
| 2026-05-06 06:48 | 43.40005 | -4.47036 | 5542 ft | 121 kts | 279° |
| 2026-05-06 06:49 | 43.40134 | -4.48183 | 5544 ft | 122 kts | 279° |
| 2026-05-06 06:49 | 43.40264 | -4.49343 | 5543 ft | 122 kts | 278° |
| 2026-05-06 06:49 | 43.40393 | -4.50495 | 5543 ft | 123 kts | 279° |
| 2026-05-06 06:49 | 43.40522 | -4.51647 | 5545 ft | 122 kts | 279° |
| 2026-05-06 06:50 | 43.40653 | -4.52816 | 5544 ft | 123 kts | 278° |
| 2026-05-06 06:50 | 43.40782 | -4.53969 | 5543 ft | 123 kts | 279° |
| 2026-05-06 06:50 | 43.40913 | -4.55146 | 5543 ft | 123 kts | 279° |
| 2026-05-06 06:50 | 43.41042 | -4.56304 | 5544 ft | 123 kts | 279° |
| 2026-05-06 06:51 | 43.41171 | -4.57459 | 5545 ft | 123 kts | 279° |
| 2026-05-06 06:51 | 43.41301 | -4.58626 | 5545 ft | 123 kts | 278° |
| 2026-05-06 06:51 | 43.41430 | -4.59787 | 5544 ft | 123 kts | 278° |
| 2026-05-06 06:51 | 43.41560 | -4.60955 | 5548 ft | 123 kts | 278° |
| 2026-05-06 06:52 | 43.41689 | -4.62119 | 5548 ft | 123 kts | 279° |
| 2026-05-06 06:52 | 43.41819 | -4.63289 | 5547 ft | 123 kts | 278° |
| 2026-05-06 06:52 | 43.41947 | -4.64444 | 5545 ft | 123 kts | 278° |
| 2026-05-06 06:52 | 43.42075 | -4.65602 | 5537 ft | 122 kts | 278° |
| 2026-05-06 06:53 | 43.42204 | -4.66771 | 5542 ft | 123 kts | 279° |
| 2026-05-06 06:53 | 43.42332 | -4.67932 | 5544 ft | 123 kts | 278° |
| 2026-05-06 06:53 | 43.42460 | -4.69084 | 5545 ft | 123 kts | 279° |
| 2026-05-06 06:53 | 43.42588 | -4.70248 | 5551 ft | 123 kts | 278° |
| 2026-05-06 06:54 | 43.42718 | -4.71428 | 5547 ft | 124 kts | 278° |
| 2026-05-06 06:54 | 43.42846 | -4.72593 | 5545 ft | 124 kts | 278° |
| 2026-05-06 06:54 | 43.42974 | -4.73756 | 5547 ft | 123 kts | 278° |
| 2026-05-06 06:54 | 43.43102 | -4.74924 | 5545 ft | 123 kts | 278° |
| 2026-05-06 06:55 | 43.43230 | -4.76087 | 5548 ft | 124 kts | 278° |
| 2026-05-06 06:55 | 43.43357 | -4.77250 | 5549 ft | 123 kts | 278° |
| 2026-05-06 06:55 | 43.43486 | -4.78425 | 5544 ft | 123 kts | 278° |
| 2026-05-06 06:55 | 43.43613 | -4.79592 | 5545 ft | 123 kts | 278° |
| 2026-05-06 06:56 | 43.43740 | -4.80755 | 5548 ft | 124 kts | 278° |
| 2026-05-06 06:56 | 43.43867 | -4.81919 | 5548 ft | 123 kts | 278° |
| 2026-05-06 06:56 | 43.43996 | -4.83090 | 5549 ft | 124 kts | 278° |
| 2026-05-06 06:56 | 43.44122 | -4.84259 | 5554 ft | 124 kts | 277° |
| 2026-05-06 06:57 | 43.44251 | -4.85440 | 5551 ft | 124 kts | 278° |
| 2026-05-06 06:57 | 43.44378 | -4.86608 | 5543 ft | 124 kts | 277° |
| 2026-05-06 06:57 | 43.44505 | -4.87777 | 5538 ft | 124 kts | 278° |
| 2026-05-06 06:57 | 43.44632 | -4.88949 | 5550 ft | 124 kts | 278° |
| 2026-05-06 06:58 | 43.44761 | -4.90135 | 5551 ft | 125 kts | 277° |
| 2026-05-06 06:58 | 43.44890 | -4.91326 | 5549 ft | 125 kts | 277° |
| 2026-05-06 06:58 | 43.45017 | -4.92496 | 5548 ft | 125 kts | 278° |
| 2026-05-06 06:58 | 43.45144 | -4.93673 | 5553 ft | 125 kts | 278° |
| 2026-05-06 06:59 | 43.45273 | -4.94864 | 5547 ft | 126 kts | 278° |
| 2026-05-06 06:59 | 43.45401 | -4.96056 | 5545 ft | 125 kts | 278° |
| 2026-05-06 06:59 | 43.45528 | -4.97232 | 5544 ft | 125 kts | 278° |
| 2026-05-06 06:59 | 43.45655 | -4.98408 | 5549 ft | 124 kts | 278° |
| 2026-05-06 07:00 | 43.45741 | -4.99208 | 5557 ft | 125 kts | 278° |
| 2026-05-06 07:00 | 43.45867 | -5.00383 | 5555 ft | 126 kts | 278° |
| 2026-05-06 07:00 | 43.46038 | -5.01969 | 5551 ft | 125 kts | 278° |
| 2026-05-06 07:00 | 43.46164 | -5.03148 | 5555 ft | 125 kts | 278° |
| 2026-05-06 07:01 | 43.46290 | -5.04328 | 5540 ft | 125 kts | 278° |
| 2026-05-06 07:01 | 43.46374 | -5.05131 | 5556 ft | 125 kts | 278° |
| 2026-05-06 07:01 | 43.46378 | -5.06326 | 5555 ft | 126 kts | 267° |
| 2026-05-06 07:01 | 43.46275 | -5.07537 | 5545 ft | 128 kts | 263° |
| 2026-05-06 07:02 | 43.46133 | -5.08741 | 5559 ft | 128 kts | 261° |
| 2026-05-06 07:02 | 43.45979 | -5.09937 | 5557 ft | 127 kts | 261° |
| 2026-05-06 07:02 | 43.45825 | -5.11138 | 5551 ft | 127 kts | 261° |
| 2026-05-06 07:02 | 43.45672 | -5.12333 | 5554 ft | 128 kts | 261° |
| 2026-05-06 07:03 | 43.45516 | -5.13550 | 5557 ft | 128 kts | 261° |
| 2026-05-06 07:03 | 43.45362 | -5.14761 | 5547 ft | 129 kts | 263° |
| 2026-05-06 07:03 | 43.45214 | -5.15966 | 5557 ft | 129 kts | 261° |
| 2026-05-06 07:03 | 43.45053 | -5.17175 | 5563 ft | 128 kts | 261° |
| 2026-05-06 07:04 | 43.44896 | -5.18383 | 5561 ft | 128 kts | 260° |
| 2026-05-06 07:04 | 43.44740 | -5.19583 | 5560 ft | 128 kts | 261° |
| 2026-05-06 07:04 | 43.44585 | -5.20777 | 5556 ft | 128 kts | 261° |
| 2026-05-06 07:04 | 43.44429 | -5.22007 | 5558 ft | 128 kts | 259° |
| 2026-05-06 07:05 | 43.44269 | -5.23192 | 5549 ft | 127 kts | 261° |
| 2026-05-06 07:05 | 43.44114 | -5.24396 | 5550 ft | 129 kts | 261° |
| 2026-05-06 07:05 | 43.43957 | -5.25616 | 5542 ft | 128 kts | 260° |
| 2026-05-06 07:05 | 43.43801 | -5.26807 | 5558 ft | 128 kts | 260° |
| 2026-05-06 07:06 | 43.43641 | -5.28020 | 5549 ft | 128 kts | 260° |
| 2026-05-06 07:06 | 43.43483 | -5.29224 | 5555 ft | 128 kts | 261° |
| 2026-05-06 07:06 | 43.43326 | -5.30441 | 5558 ft | 129 kts | 261° |
| 2026-05-06 07:06 | 43.43171 | -5.31652 | 5559 ft | 129 kts | 261° |
| 2026-05-06 07:07 | 43.43010 | -5.32863 | 5565 ft | 128 kts | 259° |
| 2026-05-06 07:07 | 43.42850 | -5.34072 | 5559 ft | 128 kts | 260° |
| 2026-05-06 07:07 | 43.42694 | -5.35284 | 5556 ft | 129 kts | 261° |
| 2026-05-06 07:07 | 43.42535 | -5.36506 | 5552 ft | 129 kts | 260° |
| 2026-05-06 07:08 | 43.42374 | -5.37734 | 5556 ft | 129 kts | 260° |
| 2026-05-06 07:08 | 43.42215 | -5.38948 | 5544 ft | 129 kts | 261° |
| 2026-05-06 07:08 | 43.42053 | -5.40173 | 5551 ft | 130 kts | 260° |
| 2026-05-06 07:08 | 43.41892 | -5.41392 | 5562 ft | 130 kts | 259° |
| 2026-05-06 07:09 | 43.41730 | -5.42619 | 5555 ft | 130 kts | 261° |
| 2026-05-06 07:09 | 43.41569 | -5.43839 | 5559 ft | 130 kts | 260° |
| 2026-05-06 07:09 | 43.41409 | -5.45060 | 5559 ft | 130 kts | 261° |
| 2026-05-06 07:09 | 43.41247 | -5.46284 | 5553 ft | 130 kts | 260° |
| 2026-05-06 07:10 | 43.41085 | -5.47510 | 5561 ft | 130 kts | 260° |
| 2026-05-06 07:10 | 43.40923 | -5.48734 | 5561 ft | 130 kts | 260° |
| 2026-05-06 07:10 | 43.40762 | -5.49954 | 5559 ft | 131 kts | 260° |
| 2026-05-06 07:10 | 43.40598 | -5.51184 | 5560 ft | 130 kts | 260° |
| 2026-05-06 07:11 | 43.40435 | -5.52413 | 5560 ft | 130 kts | 260° |
| 2026-05-06 07:11 | 43.40274 | -5.53632 | 5563 ft | 131 kts | 260° |
| 2026-05-06 07:11 | 43.40111 | -5.54859 | 5555 ft | 131 kts | 260° |
| 2026-05-06 07:11 | 43.39948 | -5.56082 | 5560 ft | 130 kts | 260° |
| 2026-05-06 07:12 | 43.39783 | -5.57315 | 5562 ft | 131 kts | 260° |
| 2026-05-06 07:12 | 43.39619 | -5.58554 | 5556 ft | 130 kts | 260° |
| 2026-05-06 07:12 | 43.39456 | -5.59771 | 5561 ft | 130 kts | 260° |
| 2026-05-06 07:12 | 43.39291 | -5.61006 | 5553 ft | 130 kts | 259° |
| 2026-05-06 07:13 | 43.39129 | -5.62221 | 5553 ft | 130 kts | 260° |
| 2026-05-06 07:13 | 43.38966 | -5.63443 | 5564 ft | 130 kts | 259° |
| 2026-05-06 07:13 | 43.38800 | -5.64683 | 5553 ft | 131 kts | 260° |
| 2026-05-06 07:13 | 43.38636 | -5.65907 | 5562 ft | 131 kts | 260° |
| 2026-05-06 07:14 | 43.38469 | -5.67150 | 5558 ft | 131 kts | 260° |
| 2026-05-06 07:14 | 43.38305 | -5.68372 | 5560 ft | 131 kts | 260° |
| 2026-05-06 07:14 | 43.38139 | -5.69613 | 5561 ft | 131 kts | 260° |
| 2026-05-06 07:14 | 43.37974 | -5.70841 | 5565 ft | 131 kts | 260° |
| 2026-05-06 07:15 | 43.37808 | -5.72071 | 5561 ft | 131 kts | 260° |
| 2026-05-06 07:15 | 43.37641 | -5.73311 | 5568 ft | 131 kts | 259° |
| 2026-05-06 07:15 | 43.37476 | -5.74540 | 5560 ft | 132 kts | 260° |
| 2026-05-06 07:15 | 43.37308 | -5.75785 | 5567 ft | 131 kts | 260° |
| 2026-05-06 07:16 | 43.37143 | -5.77007 | 5563 ft | 131 kts | 260° |
| 2026-05-06 07:16 | 43.36975 | -5.78249 | 5568 ft | 132 kts | 260° |
| 2026-05-06 07:16 | 43.36808 | -5.79486 | 5567 ft | 131 kts | 260° |
| 2026-05-06 07:16 | 43.36642 | -5.80714 | 5562 ft | 132 kts | 260° |
| 2026-05-06 07:17 | 43.36476 | -5.81942 | 5565 ft | 131 kts | 260° |
| 2026-05-06 07:17 | 43.36305 | -5.83188 | 5570 ft | 131 kts | 259° |
| 2026-05-06 07:17 | 43.36132 | -5.84420 | 5567 ft | 132 kts | 260° |
| 2026-05-06 07:17 | 43.35959 | -5.85654 | 5571 ft | 132 kts | 259° |
| 2026-05-06 07:18 | 43.35786 | -5.86902 | 5570 ft | 132 kts | 259° |
| 2026-05-06 07:18 | 43.35614 | -5.88134 | 5570 ft | 132 kts | 259° |
| 2026-05-06 07:18 | 43.35441 | -5.89374 | 5573 ft | 132 kts | 259° |
| 2026-05-06 07:18 | 43.35270 | -5.90599 | 5572 ft | 132 kts | 259° |
| 2026-05-06 07:19 | 43.35096 | -5.91841 | 5573 ft | 132 kts | 259° |
| 2026-05-06 07:19 | 43.34924 | -5.93077 | 5575 ft | 132 kts | 259° |
| 2026-05-06 07:19 | 43.34750 | -5.94322 | 5571 ft | 133 kts | 259° |
| 2026-05-06 07:19 | 43.34575 | -5.95569 | 5574 ft | 132 kts | 259° |
| 2026-05-06 07:20 | 43.34400 | -5.96814 | 5575 ft | 133 kts | 259° |
| 2026-05-06 07:20 | 43.34229 | -5.98036 | 5571 ft | 132 kts | 259° |
| 2026-05-06 07:20 | 43.34054 | -5.99287 | 5570 ft | 133 kts | 259° |
| 2026-05-06 07:20 | 43.33880 | -6.00520 | 5563 ft | 132 kts | 259° |
| 2026-05-06 07:21 | 43.33705 | -6.01761 | 5557 ft | 132 kts | 259° |
| 2026-05-06 07:21 | 43.33530 | -6.03006 | 5569 ft | 133 kts | 259° |
| 2026-05-06 07:21 | 43.33354 | -6.04253 | 5574 ft | 133 kts | 259° |
| 2026-05-06 07:21 | 43.33178 | -6.05501 | 5573 ft | 132 kts | 259° |
| 2026-05-06 07:22 | 43.33003 | -6.06746 | 5573 ft | 133 kts | 259° |
| 2026-05-06 07:22 | 43.32835 | -6.07933 | 5574 ft | 133 kts | 259° |
| 2026-05-06 07:22 | 43.32658 | -6.09184 | 5576 ft | 133 kts | 258° |
| 2026-05-06 07:22 | 43.32481 | -6.10438 | 5572 ft | 134 kts | 259° |
| 2026-05-06 07:23 | 43.32304 | -6.11691 | 5571 ft | 134 kts | 259° |
| 2026-05-06 07:23 | 43.32130 | -6.12929 | 5574 ft | 135 kts | 259° |
| 2026-05-06 07:23 | 43.31948 | -6.14195 | 5574 ft | 133 kts | 258° |
| 2026-05-06 07:23 | 43.31771 | -6.15448 | 5572 ft | 134 kts | 259° |
| 2026-05-06 07:24 | 43.31592 | -6.16706 | 5571 ft | 134 kts | 259° |
| 2026-05-06 07:24 | 43.31416 | -6.17940 | 5570 ft | 133 kts | 259° |
| 2026-05-06 07:24 | 43.31239 | -6.19196 | 5573 ft | 134 kts | 259° |
| 2026-05-06 07:24 | 43.31058 | -6.20452 | 5576 ft | 134 kts | 259° |
| 2026-05-06 07:25 | 43.30880 | -6.21705 | 5568 ft | 133 kts | 259° |
| 2026-05-06 07:25 | 43.30702 | -6.22954 | 5575 ft | 133 kts | 259° |
| 2026-05-06 07:25 | 43.30523 | -6.24208 | 5572 ft | 134 kts | 259° |
| 2026-05-06 07:25 | 43.30344 | -6.25468 | 5570 ft | 134 kts | 259° |
| 2026-05-06 07:26 | 43.30166 | -6.26721 | 5573 ft | 133 kts | 259° |
| 2026-05-06 07:26 | 43.29990 | -6.27957 | 5575 ft | 134 kts | 259° |
| 2026-05-06 07:26 | 43.29807 | -6.29212 | 5573 ft | 134 kts | 258° |
| 2026-05-06 07:26 | 43.29629 | -6.30465 | 5571 ft | 134 kts | 259° |
| 2026-05-06 07:27 | 43.29448 | -6.31716 | 5575 ft | 134 kts | 258° |
| 2026-05-06 07:27 | 43.29268 | -6.32969 | 5573 ft | 134 kts | 259° |
| 2026-05-06 07:27 | 43.29087 | -6.34226 | 5574 ft | 134 kts | 259° |
| 2026-05-06 07:27 | 43.28908 | -6.35479 | 5573 ft | 134 kts | 259° |
| 2026-05-06 07:28 | 43.28728 | -6.36719 | 5571 ft | 134 kts | 259° |
| 2026-05-06 07:28 | 43.28550 | -6.37962 | 5572 ft | 135 kts | 259° |
| 2026-05-06 07:28 | 43.28193 | -6.40431 | 5576 ft | 134 kts | 258° |
| 2026-05-06 07:29 | 43.28005 | -6.41682 | 5564 ft | 135 kts | 258° |
| 2026-05-06 07:29 | 43.27767 | -6.42929 | 5576 ft | 135 kts | 255° |
| 2026-05-06 07:29 | 43.27496 | -6.44164 | 5574 ft | 135 kts | 252° |
| 2026-05-06 07:29 | 43.27211 | -6.45393 | 5572 ft | 136 kts | 252° |
| 2026-05-06 07:30 | 43.26925 | -6.46615 | 5575 ft | 135 kts | 252° |
| 2026-05-06 07:30 | 43.26638 | -6.47846 | 5581 ft | 135 kts | 252° |
| 2026-05-06 07:30 | 43.26350 | -6.49079 | 5572 ft | 136 kts | 253° |
| 2026-05-06 07:30 | 43.26060 | -6.50317 | 5580 ft | 136 kts | 252° |
| 2026-05-06 07:31 | 43.25771 | -6.51556 | 5583 ft | 136 kts | 252° |
| 2026-05-06 07:31 | 43.25485 | -6.52775 | 5578 ft | 136 kts | 252° |
| 2026-05-06 07:31 | 43.25195 | -6.54014 | 5578 ft | 136 kts | 252° |
| 2026-05-06 07:31 | 43.24904 | -6.55254 | 5581 ft | 137 kts | 252° |
| 2026-05-06 07:32 | 43.24614 | -6.56492 | 5578 ft | 136 kts | 252° |
| 2026-05-06 07:32 | 43.24324 | -6.57726 | 5579 ft | 137 kts | 252° |
| 2026-05-06 07:32 | 43.24031 | -6.58974 | 5582 ft | 136 kts | 252° |
| 2026-05-06 07:32 | 43.23740 | -6.60211 | 5579 ft | 136 kts | 252° |
| 2026-05-06 07:33 | 43.23453 | -6.61436 | 5583 ft | 136 kts | 252° |
| 2026-05-06 07:33 | 43.23161 | -6.62674 | 5579 ft | 136 kts | 252° |
| 2026-05-06 07:33 | 43.22869 | -6.63917 | 5580 ft | 137 kts | 252° |
| 2026-05-06 07:33 | 43.22575 | -6.65166 | 5562 ft | 136 kts | 252° |
| 2026-05-06 07:34 | 43.22282 | -6.66408 | 5547 ft | 137 kts | 252° |
| 2026-05-06 07:34 | 43.21986 | -6.67670 | 5547 ft | 140 kts | 252° |
| 2026-05-06 07:34 | 43.21691 | -6.68914 | 5548 ft | 139 kts | 253° |
| 2026-05-06 07:34 | 43.21395 | -6.70173 | 5551 ft | 138 kts | 251° |
| 2026-05-06 07:35 | 43.21097 | -6.71427 | 5548 ft | 138 kts | 252° |
| 2026-05-06 07:35 | 43.20801 | -6.72680 | 5551 ft | 138 kts | 251° |
| 2026-05-06 07:35 | 43.20507 | -6.73938 | 5556 ft | 138 kts | 252° |
| 2026-05-06 07:35 | 43.20210 | -6.75185 | 5547 ft | 138 kts | 252° |
| 2026-05-06 07:36 | 43.19915 | -6.76429 | 5552 ft | 138 kts | 252° |
| 2026-05-06 07:36 | 43.19617 | -6.77687 | 5550 ft | 139 kts | 252° |
| 2026-05-06 07:36 | 43.19319 | -6.78948 | 5544 ft | 139 kts | 252° |
| 2026-05-06 07:36 | 43.19021 | -6.80204 | 5553 ft | 138 kts | 252° |
| 2026-05-06 07:37 | 43.18723 | -6.81461 | 5558 ft | 138 kts | 252° |
| 2026-05-06 07:37 | 43.18425 | -6.82718 | 5552 ft | 138 kts | 252° |
| 2026-05-06 07:37 | 43.18130 | -6.83960 | 5556 ft | 139 kts | 252° |
| 2026-05-06 07:37 | 43.17831 | -6.85218 | 5551 ft | 139 kts | 252° |
| 2026-05-06 07:38 | 43.17532 | -6.86476 | 5549 ft | 139 kts | 252° |
| 2026-05-06 07:38 | 43.17233 | -6.87737 | 5553 ft | 139 kts | 252° |
| 2026-05-06 07:38 | 43.16933 | -6.88993 | 5555 ft | 138 kts | 251° |
| 2026-05-06 07:38 | 43.16634 | -6.90249 | 5552 ft | 138 kts | 251° |
| 2026-05-06 07:39 | 43.16335 | -6.91505 | 5553 ft | 139 kts | 252° |
| 2026-05-06 07:39 | 43.16036 | -6.92759 | 5549 ft | 138 kts | 251° |
| 2026-05-06 07:39 | 43.15736 | -6.94018 | 5546 ft | 139 kts | 252° |
| 2026-05-06 07:39 | 43.15440 | -6.95257 | 5551 ft | 139 kts | 252° |
| 2026-05-06 07:40 | 43.15138 | -6.96525 | 5554 ft | 139 kts | 252° |
| 2026-05-06 07:40 | 43.14837 | -6.97781 | 5549 ft | 139 kts | 251° |
| 2026-05-06 07:40 | 43.14535 | -6.99049 | 5556 ft | 139 kts | 252° |
| 2026-05-06 07:40 | 43.14239 | -7.00286 | 5545 ft | 139 kts | 252° |
| 2026-05-06 07:41 | 43.13934 | -7.01559 | 5552 ft | 139 kts | 251° |
| 2026-05-06 07:41 | 43.13632 | -7.02822 | 5548 ft | 139 kts | 252° |
| 2026-05-06 07:41 | 43.13331 | -7.04079 | 5544 ft | 139 kts | 252° |
| 2026-05-06 07:41 | 43.13030 | -7.05333 | 5550 ft | 139 kts | 252° |
| 2026-05-06 07:42 | 43.12728 | -7.06594 | 5549 ft | 139 kts | 252° |
| 2026-05-06 07:42 | 43.12428 | -7.07840 | 5556 ft | 139 kts | 252° |
| 2026-05-06 07:42 | 43.12124 | -7.09107 | 5548 ft | 139 kts | 252° |
| 2026-05-06 07:42 | 43.11821 | -7.10367 | 5544 ft | 139 kts | 251° |
| 2026-05-06 07:43 | 43.11518 | -7.11631 | 5544 ft | 139 kts | 252° |
| 2026-05-06 07:43 | 43.11219 | -7.12877 | 5555 ft | 139 kts | 252° |
| 2026-05-06 07:43 | 43.10915 | -7.14138 | 5542 ft | 139 kts | 252° |
| 2026-05-06 07:43 | 43.10611 | -7.15401 | 5554 ft | 139 kts | 252° |
| 2026-05-06 07:44 | 43.10307 | -7.16664 | 5553 ft | 139 kts | 252° |
| 2026-05-06 07:44 | 43.10006 | -7.17911 | 5553 ft | 140 kts | 252° |
| 2026-05-06 07:44 | 43.09703 | -7.19168 | 5555 ft | 139 kts | 252° |
| 2026-05-06 07:44 | 43.09399 | -7.20428 | 5553 ft | 139 kts | 251° |
| 2026-05-06 07:45 | 43.09094 | -7.21679 | 5458 ft | 137 kts | 250° |
| 2026-05-06 07:45 | 43.08791 | -7.22923 | 5330 ft | 138 kts | 251° |
| 2026-05-06 07:45 | 43.08591 | -7.23743 | 5239 ft | 137 kts | 250° |
| 2026-05-06 07:45 | 43.08289 | -7.24979 | 5106 ft | 137 kts | 251° |
| 2026-05-06 07:46 | 43.07991 | -7.26212 | 4980 ft | 136 kts | 250° |
| 2026-05-06 07:46 | 43.07692 | -7.27446 | 4853 ft | 136 kts | 250° |
| 2026-05-06 07:46 | 43.07393 | -7.28673 | 4723 ft | 136 kts | 250° |
| 2026-05-06 07:46 | 43.07099 | -7.29885 | 4595 ft | 136 kts | 250° |
| 2026-05-06 07:47 | 43.06805 | -7.31120 | 4552 ft | 137 kts | 251° |
| 2026-05-06 07:47 | 43.06513 | -7.32365 | 4551 ft | 137 kts | 251° |
| 2026-05-06 07:47 | 43.06215 | -7.33591 | 4554 ft | 137 kts | 251° |
| 2026-05-06 07:47 | 43.05912 | -7.34827 | 4554 ft | 137 kts | 251° |
| 2026-05-06 07:48 | 43.05612 | -7.36067 | 4553 ft | 137 kts | 251° |
| 2026-05-06 07:48 | 43.05314 | -7.37289 | 4553 ft | 137 kts | 251° |
| 2026-05-06 07:48 | 43.05012 | -7.38531 | 4558 ft | 137 kts | 251° |
| 2026-05-06 07:48 | 43.04714 | -7.39756 | 4552 ft | 137 kts | 251° |
| 2026-05-06 07:49 | 43.04413 | -7.40993 | 4555 ft | 137 kts | 251° |
| 2026-05-06 07:49 | 43.04112 | -7.42227 | 4554 ft | 137 kts | 251° |
| 2026-05-06 07:49 | 43.03810 | -7.43465 | 4514 ft | 137 kts | 251° |
| 2026-05-06 07:49 | 43.03511 | -7.44691 | 4513 ft | 137 kts | 251° |
| 2026-05-06 07:50 | 43.03208 | -7.45935 | 4509 ft | 137 kts | 251° |
| 2026-05-06 07:50 | 43.02909 | -7.47162 | 4508 ft | 137 kts | 251° |
| 2026-05-06 07:50 | 43.02606 | -7.48400 | 4510 ft | 137 kts | 251° |
| 2026-05-06 07:50 | 43.02303 | -7.49643 | 4508 ft | 137 kts | 251° |
| 2026-05-06 07:51 | 43.02002 | -7.50871 | 4508 ft | 137 kts | 251° |
| 2026-05-06 07:51 | 43.01699 | -7.52112 | 4509 ft | 137 kts | 251° |
| 2026-05-06 07:51 | 43.01397 | -7.53343 | 4506 ft | 137 kts | 251° |
| 2026-05-06 07:51 | 43.01125 | -7.54603 | 4508 ft | 137 kts | 255° |
| 2026-05-06 07:52 | 43.00915 | -7.55877 | 4507 ft | 137 kts | 258° |
| 2026-05-06 07:52 | 43.00734 | -7.57150 | 4505 ft | 137 kts | 259° |
| 2026-05-06 07:52 | 43.00561 | -7.58434 | 4509 ft | 137 kts | 259° |
| 2026-05-06 07:52 | 43.00390 | -7.59705 | 4502 ft | 137 kts | 259° |
| 2026-05-06 07:53 | 43.00217 | -7.60989 | 4505 ft | 137 kts | 259° |
| 2026-05-06 07:53 | 43.00044 | -7.62273 | 4503 ft | 137 kts | 259° |
| 2026-05-06 07:53 | 42.99871 | -7.63547 | 4510 ft | 137 kts | 259° |
| 2026-05-06 07:53 | 42.99699 | -7.64814 | 4423 ft | 136 kts | 258° |
| 2026-05-06 07:54 | 42.99526 | -7.66089 | 4298 ft | 135 kts | 258° |
| 2026-05-06 07:54 | 42.99356 | -7.67341 | 4168 ft | 135 kts | 258° |
| 2026-05-06 07:54 | 42.99185 | -7.68604 | 4039 ft | 135 kts | 258° |
| 2026-05-06 07:54 | 42.99014 | -7.69865 | 3912 ft | 134 kts | 258° |
| 2026-05-06 07:55 | 42.98846 | -7.71106 | 3786 ft | 134 kts | 258° |
| 2026-05-06 07:55 | 42.98676 | -7.72358 | 3653 ft | 133 kts | 258° |
| 2026-05-06 07:55 | 42.98510 | -7.73589 | 3550 ft | 134 kts | 259° |
| 2026-05-06 07:55 | 42.98344 | -7.74849 | 3552 ft | 134 kts | 259° |
| 2026-05-06 07:56 | 42.98172 | -7.76110 | 3555 ft | 135 kts | 259° |
| 2026-05-06 07:56 | 42.97999 | -7.77361 | 3549 ft | 135 kts | 259° |
| 2026-05-06 07:56 | 42.97827 | -7.78623 | 3549 ft | 134 kts | 259° |
| 2026-05-06 07:56 | 42.97656 | -7.79878 | 3550 ft | 134 kts | 259° |
| 2026-05-06 07:57 | 42.97486 | -7.81127 | 3547 ft | 135 kts | 259° |
| 2026-05-06 07:57 | 42.97313 | -7.82392 | 3548 ft | 135 kts | 259° |
| 2026-05-06 07:57 | 42.97142 | -7.83641 | 3546 ft | 135 kts | 259° |
| 2026-05-06 07:57 | 42.96968 | -7.84907 | 3549 ft | 135 kts | 259° |
| 2026-05-06 07:58 | 42.96855 | -7.85741 | 3547 ft | 135 kts | 259° |
| 2026-05-06 07:58 | 42.96680 | -7.87011 | 3551 ft | 136 kts | 259° |
| 2026-05-06 07:58 | 42.96508 | -7.88266 | 3548 ft | 136 kts | 259° |
| 2026-05-06 07:58 | 42.96333 | -7.89541 | 3551 ft | 136 kts | 259° |
| 2026-05-06 07:59 | 42.96161 | -7.90806 | 3547 ft | 136 kts | 259° |
| 2026-05-06 07:59 | 42.95987 | -7.92061 | 3549 ft | 135 kts | 259° |
| 2026-05-06 07:59 | 42.95813 | -7.93328 | 3549 ft | 135 kts | 259° |
| 2026-05-06 07:59 | 42.95640 | -7.94583 | 3551 ft | 135 kts | 259° |
| 2026-05-06 08:00 | 42.95465 | -7.95850 | 3550 ft | 136 kts | 259° |
| 2026-05-06 08:00 | 42.95291 | -7.97106 | 3482 ft | 135 kts | 258° |
| 2026-05-06 08:00 | 42.95117 | -7.98352 | 3349 ft | 134 kts | 259° |
| 2026-05-06 08:00 | 42.94945 | -7.99600 | 3228 ft | 135 kts | 258° |
| 2026-05-06 08:01 | 42.94772 | -8.00856 | 3096 ft | 134 kts | 259° |
| 2026-05-06 08:01 | 42.94599 | -8.02106 | 2969 ft | 134 kts | 258° |
| 2026-05-06 08:01 | 42.94425 | -8.03361 | 2844 ft | 134 kts | 258° |
| 2026-05-06 08:01 | 42.94254 | -8.04596 | 2720 ft | 134 kts | 257° |
| 2026-05-06 08:02 | 42.94081 | -8.05848 | 2572 ft | 133 kts | 258° |
| 2026-05-06 08:02 | 42.93912 | -8.07087 | 2509 ft | 135 kts | 259° |
| 2026-05-06 08:02 | 42.93739 | -8.08351 | 2513 ft | 134 kts | 258° |
| 2026-05-06 08:02 | 42.93567 | -8.09592 | 2509 ft | 134 kts | 259° |
| 2026-05-06 08:03 | 42.93392 | -8.10840 | 2515 ft | 133 kts | 258° |
| 2026-05-06 08:03 | 42.93216 | -8.12096 | 2511 ft | 135 kts | 259° |
| 2026-05-06 08:03 | 42.93040 | -8.13344 | 2509 ft | 134 kts | 258° |
| 2026-05-06 08:03 | 42.92864 | -8.14587 | 2508 ft | 135 kts | 258° |
| 2026-05-06 08:04 | 42.92691 | -8.15842 | 2506 ft | 134 kts | 259° |
| 2026-05-06 08:04 | 42.92534 | -8.17102 | 2512 ft | 135 kts | 260° |
| 2026-05-06 08:04 | 42.92383 | -8.18304 | 2536 ft | 115 kts | 257° |
| 2026-05-06 08:04 | 42.92250 | -8.19310 | 2503 ft | 107 kts | 261° |
| 2026-05-06 08:05 | 42.92131 | -8.20307 | 2515 ft | 107 kts | 260° |
| 2026-05-06 08:05 | 42.92008 | -8.21316 | 2516 ft | 107 kts | 261° |
| 2026-05-06 08:05 | 42.91888 | -8.22313 | 2514 ft | 108 kts | 260° |
| 2026-05-06 08:05 | 42.91765 | -8.23327 | 2526 ft | 108 kts | 260° |
| 2026-05-06 08:06 | 42.91642 | -8.24336 | 2517 ft | 108 kts | 260° |
| 2026-05-06 08:06 | 42.91520 | -8.25336 | 2517 ft | 108 kts | 261° |
| 2026-05-06 08:06 | 42.91395 | -8.26351 | 2518 ft | 108 kts | 260° |
| 2026-05-06 08:06 | 42.91273 | -8.27346 | 2524 ft | 106 kts | 259° |
| 2026-05-06 08:07 | 42.91150 | -8.28349 | 2524 ft | 107 kts | 260° |
| 2026-05-06 08:07 | 42.91026 | -8.29325 | 2419 ft | 105 kts | 258° |
| 2026-05-06 08:07 | 42.90898 | -8.30302 | 2292 ft | 104 kts | 258° |
| 2026-05-06 08:07 | 42.90771 | -8.31272 | 2150 ft | 103 kts | 259° |
| 2026-05-06 08:08 | 42.90651 | -8.32234 | 2023 ft | 104 kts | 259° |
| 2026-05-06 08:08 | 42.90532 | -8.33210 | 2005 ft | 106 kts | 259° |
| 2026-05-06 08:08 | 42.90410 | -8.34211 | 2002 ft | 107 kts | 259° |
| 2026-05-06 08:08 | 42.90289 | -8.35204 | 2003 ft | 107 kts | 258° |
| 2026-05-06 08:09 | 42.90164 | -8.36216 | 2002 ft | 108 kts | 258° |
| 2026-05-06 08:09 | 42.90033 | -8.37187 | 1760 ft | 100 kts | 253° |
| 2026-05-06 08:09 | 42.89698 | -8.37913 | 1464 ft | 77 kts | 191° |
| 2026-05-06 08:09 | 42.89361 | -8.37874 | 1602 ft | 32 kts | 172° |
| 2026-05-06 08:10 | 42.89171 | -8.38022 | 1635 ft | 43 kts | 214° |
| 2026-05-06 08:10 | 42.88933 | -8.37765 | 1590 ft | 36 kts | 102° |
| 2026-05-06 08:10 | 42.88742 | -8.37554 | 1596 ft | 40 kts | 160° |
| 2026-05-06 08:10 | 42.88486 | -8.37467 | 1598 ft | 36 kts | 160° |
| 2026-05-06 08:11 | 42.88255 | -8.37365 | 1605 ft | 34 kts | 157° |
| 2026-05-06 08:11 | 42.88009 | -8.37390 | 1699 ft | 41 kts | 207° |
| 2026-05-06 08:11 | 42.87767 | -8.37827 | 1579 ft | 73 kts | 244° |
| 2026-05-06 08:11 | 42.87731 | -8.38403 | 1410 ft | 59 kts | 272° |
| 2026-05-06 08:12 | 42.87771 | -8.38929 | 1227 ft | 53 kts | 273° |
| 2026-05-06 08:12 | 42.87833 | -8.39270 | 1173 ft | 24 kts | 276° |
| 2026-05-06 08:12 | 42.87826 | -8.39510 | 1194 ft | 33 kts | 287° |
| 2026-05-06 08:12 | 42.87854 | -8.39827 | 1332 ft | 44 kts | 288° |
| 2026-05-06 08:13 | 42.88060 | -8.40317 | 1342 ft | 65 kts | 308° |
| 2026-05-06 08:13 | 42.88157 | -8.40648 | 1508 ft | 18 kts | 278° |
| 2026-05-06 08:13 | 42.88206 | -8.40865 | 1446 ft | 41 kts | 300° |
| 2026-05-06 08:13 | 42.88420 | -8.41161 | 1399 ft | 48 kts | 354° |
| 2026-05-06 08:14 | 42.88860 | -8.41257 | 1244 ft | 68 kts | 349° |
| 2026-05-06 08:14 | 42.89202 | -8.41365 | 1227 ft | 34 kts | 348° |
| 2026-05-06 08:14 | 42.89412 | -8.41427 | 1232 ft | 32 kts | 353° |
| 2026-05-06 08:14 | 42.89676 | -8.41505 | 1217 ft | 32 kts | 342° |
| 2026-05-06 08:15 | 42.89775 | -8.41589 | 1211 ft | 10 kts | 274° |
| 2026-05-06 08:15 | 42.89773 | -8.41679 | 1208 ft | 9 kts | 254° |
| 2026-05-06 08:15 | 42.89746 | -8.41757 | 1205 ft | 8 kts | 207° |
| 2026-05-06 08:15 | 42.89701 | -8.41763 | 1197 ft | 3 kts | 209° |
| 2026-05-06 08:16 | 42.89626 | -8.41746 | 1200 ft | 14 kts | 173° |
| 2026-05-06 08:16 | 42.89546 | -8.41723 | 1209 ft | 12 kts | 168° |
| 2026-05-06 08:16 | 42.89452 | -8.41695 | 1215 ft | 15 kts | 165° |
| 2026-05-06 08:16 | 42.89327 | -8.41647 | 1211 ft | 22 kts | 168° |
| 2026-05-06 08:17 | 42.89196 | -8.41600 | 1214 ft | 18 kts | 171° |
| 2026-05-06 08:17 | 42.89103 | -8.41592 | 1207 ft | 9 kts | 261° |
| 2026-05-06 08:17 | 42.89088 | -8.41691 | 1218 ft | 8 kts | 244° |
| 2026-05-06 08:17 | 42.89078 | -8.41758 | 1227 ft | 12 kts | 205° |
| 2026-05-06 08:18 | 42.89067 | -8.41768 | 1241 ft | 6 kts | 120° |
| 2026-05-06 08:18 | 42.89028 | -8.41775 | 1244 ft | 19 kts | 57° |
| 2026-05-06 08:18 | 42.89004 | -8.41761 | 1217 ft | 18 kts | 39° |
| 2026-05-06 08:18 | 42.89020 | -8.41772 | 1221 ft | 5 kts | 53° |
| 2026-05-06 08:19 | 42.89037 | -8.41743 | 1202 ft | 2 kts | 53° |